Flight Track Log - Related Links

Times and Time Zones

All times are in EDT time to prevent confusion due to time zone crossing. See the N810DA flight status page for this flight to view local times or setup timezone preferences in your user account.

Time Position Orientation Groundspeed Altitude Reporting Facility
EDT Latitude Longitude Course Direction KTS MPH feet Rate Location/Type
Thu 02:54:15 PM 31.1908 -90.5958 277° West 77 89 3,400  Level Houston Center
Thu 02:55:18 PM 31.1925 -90.6197 275° West 76 87 3,900 484 Climbing Houston Center
Thu 02:56:19 PM 31.1931 -90.6444 272° West 75 86 4,400 390 Climbing Houston Center
Thu 02:57:00 PM 31.1833 -90.6285 270° West  Level FlightAware Approximate
Thu 02:57:21 PM 31.1939 -90.6689 272° West 75 86 4,700  Level Houston Center
Thu 02:58:00 PM 31.1625 -90.6503 222° Southwest  Level FlightAware Approximate
Thu 02:58:24 PM 31.1953 -90.6942 274° West 76 87 5,200  Level Houston Center
Thu 02:59:26 PM 31.1964 -90.7244 272° West 77 89 5,800 484 Climbing Houston Center
Thu 03:00:28 PM 31.1958 -90.7506 269° West 79 91 6,200 387 Climbing Houston Center
Thu 03:01:30 PM 31.1942 -90.7750 265° West 77 89 6,600 387 Climbing Houston Center
Thu 03:02:32 PM 31.1931 -90.7997 267° West 76 87 7,000 435 Climbing Houston Center
Thu 03:03:34 PM 31.1947 -90.8242 275° West 76 87 7,500 435 Climbing Houston Center
Thu 03:04:36 PM 31.1978 -90.8578 276° West 84 97 7,900 288 Climbing Houston Center
Thu 03:05:39 PM 31.1981 -90.8850 271° West 85 98 8,100 96 Climbing Houston Center
Thu 03:06:41 PM 31.2008 -90.9158 276° West 92 106 8,100 48 Level Houston Center
Thu 03:07:43 PM 31.2050 -90.9478 279° West 99 114 8,200 97 Climbing Houston Center
Thu 03:08:45 PM 31.2106 -90.9792 282° West 98 113 8,300 97 Climbing Houston Center
Thu 03:09:47 PM 31.2131 -91.0128 275° West 102 117 8,400 -48 Climbing Houston Center
Thu 03:10:49 PM 31.2128 -91.0547 270° West 106 122 8,200 -97 Descending Houston Center
Thu 03:11:51 PM 31.2139 -91.0917 272° West 113 130 8,200 48 Level Houston Center
Thu 03:12:54 PM 31.2144 -91.1250 271° West 106 122 8,300  Climbing Houston Center
Thu 03:13:56 PM 31.2172 -91.1586 276° West 104 120 8,200 -48 Descending Houston Center
Thu 03:14:58 PM 31.2178 -91.1928 271° West 105 121 8,200  Level Houston Center
Thu 03:16:00 PM 31.2183 -91.2333 271° West 105 121 8,200  Level Houston Center
Thu 03:17:02 PM 31.2197 -91.2672 273° West 105 121 8,200  Level Houston Center
Thu 03:18:04 PM 31.2239 -91.2997 279° West 102 117 8,200  Level Houston Center
Thu 03:19:06 PM 31.2244 -91.3339 271° West 103 119 8,200  Level Houston Center
Thu 03:20:09 PM 31.2219 -91.3675 265° West 103 119 8,200  Level Houston Center
Thu 03:20:50 PM 31.2219 -91.3956 270° West 101 116 8,200 -67 Level Houston Center
Thu 03:21:39 PM 31.2222 -91.4272 271° West 108 124 8,100 -71 Descending Houston Center
Thu 03:22:14 PM 31.2233 -91.4406 276° West 112 129 8,100  Level Houston Center
Thu 03:23:15 PM 31.2233 -91.4747 270° West 107 123 8,100 -49 Level Houston Center
Thu 03:24:17 PM 31.2267 -91.5169 275° West 108 124 8,000 -48 Descending Houston Center
Thu 03:25:19 PM 31.2297 -91.5508 276° West 106 122 8,000  Level Houston Center
Thu 03:26:21 PM 31.2314 -91.5844 273° West 105 121 8,000  Level Houston Center
Thu 03:27:24 PM 31.2333 -91.6197 274° West 108 124 8,000 48 Level Houston Center
Thu 03:28:26 PM 31.2353 -91.6542 274° West 107 123 8,100 48 Climbing Houston Center
Thu 03:29:28 PM 31.2372 -91.6964 273° West 109 125 8,100 -48 Level Houston Center
Thu 03:30:30 PM 31.2353 -91.7317 266° West 108 124 8,000  Descending Houston Center
Thu 03:31:32 PM 31.2336 -91.7667 267° West 107 123 8,100  Climbing Houston Center
Thu 03:32:34 PM 31.2328 -91.8003 268° West 104 120 8,000 -96 Descending Houston Center
Thu 03:33:37 PM 31.2333 -91.8344 271° West 104 120 7,900 -48 Descending Houston Center
Thu 03:34:39 PM 31.2325 -91.8672 268° West 102 117 7,900 97 Level Houston Center
Thu 03:35:41 PM 31.2356 -91.9061 275° West 100 115 8,100 97 Climbing Houston Center
Thu 03:36:43 PM 31.2367 -91.9400 272° West 103 119 8,100 -48 Level Houston Center
Thu 03:37:45 PM 31.2372 -91.9767 271° West 109 125 8,000 -48 Descending Houston Center
Thu 03:38:47 PM 31.2403 -92.0111 276° West 109 125 8,000  Level Houston Center
Thu 03:39:50 PM 31.2406 -92.0519 270° West 105 121 8,000  Level Houston Center
Thu 03:40:50 PM 31.2431 -92.0858 275° West 107 123 8,000  Level Houston Center
Thu 03:41:51 PM 31.2475 -92.1197 279° West 106 122 8,000 48 Level Houston Center
Thu 03:42:56 PM 31.2494 -92.1536 274° West 106 122 8,100 50 Climbing Houston Center
Thu 03:43:52 PM 31.2500 -92.1875 271° West 102 117 8,100  Level Houston Center
Thu 03:44:53 PM 31.2503 -92.2217 271° West 105 121 8,100 50 Level Houston Center
Thu 03:45:53 PM 31.2506 -92.2558 271° West 107 123 8,200  Climbing Houston Center
Thu 03:46:54 PM 31.2511 -92.2947 271° West 113 130 8,100 -49 Descending Houston Center
Thu 03:47:55 PM 31.2514 -92.3289 271° West 110 127 8,100  Level Houston Center
Thu 03:48:55 PM 31.2539 -92.3653 275° West 109 125 8,100  Level Houston Center
Thu 03:49:56 PM 31.2564 -92.4017 275° West 113 130 8,100  Level Houston Center
Thu 03:50:57 PM 31.2589 -92.4403 274° West 113 130 8,100  Level Houston Center
Thu 03:51:58 PM 31.2614 -92.4767 275° West 109 125 8,100 -50 Level Houston Center
Thu 03:52:58 PM 31.2658 -92.5106 279° West 109 125 8,000 -50 Descending Houston Center
Thu 03:53:59 PM 31.2639 -92.5472 266° West 107 123 8,000  Level Houston Center
Thu 03:54:59 PM 31.2661 -92.5786 275° West 107 123 8,000 50 Level Houston Center
Thu 03:56:00 PM 31.2664 -92.6153 271° West 104 120 8,100 49 Climbing Houston Center
Thu 03:57:01 PM 31.2644 -92.6472 266° West 104 120 8,100  Level Houston Center
Thu 03:58:01 PM 31.2647 -92.6836 271° West 105 121 8,100  Level Houston Center
Thu 03:59:02 PM 31.2667 -92.7150 274° West 105 121 8,100  Level Houston Center
Thu 04:00:02 PM 31.2669 -92.7517 271° West 103 119 8,100  Level Houston Center
Thu 04:00:32 PM 31.2664 -92.7611 266° West 103 119 8,100 98 Level Houston Center
Thu 04:01:03 PM 31.2650 -92.7861 266° West 106 122 8,200 97 Climbing Houston Center
Thu 04:01:34 PM 31.2656 -92.8025 272° West 105 121 8,200 -98 Level Houston Center
Thu 04:02:04 PM 31.2650 -92.8200 268° West 106 122 8,100 -97 Descending Houston Center
Thu 04:02:36 PM 31.2625 -92.8364 260° West 106 122 8,100 63 Level Houston Center
Thu 04:03:39 PM 31.2603 -92.8733 266° West 111 128 8,200 63 Climbing Houston Center
Thu 04:04:11 PM 31.2617 -92.8958 274° West 110 127 8,200  Level Houston Center
Thu 04:04:41 PM 31.2603 -92.9075 262° West 107 123 8,200 -98 Level Houston Center
Thu 04:05:12 PM 31.2575 -92.9306 262° West 109 125 8,100 -97 Descending Houston Center
Thu 04:05:43 PM 31.2536 -92.9439 251° West 111 128 8,100  Level Houston Center
Thu 04:06:45 PM 31.2472 -92.9772 257° West 107 123 8,100  Level Houston Center
Thu 04:07:47 PM 31.2414 -93.0208 261° West 112 129 8,100 48 Level Houston Center
Thu 04:08:49 PM 31.2378 -93.0544 263° West 106 122 8,200 65 Climbing Houston Center
Thu 04:09:20 PM 31.2353 -93.0761 262° West 106 122 8,200  Level Houston Center
Thu 04:09:51 PM 31.2339 -93.0897 263° West 109 125 8,200  Level Houston Center
Thu 04:10:21 PM 31.2331 -93.1081 267° West 108 124 8,200 -95 Level Houston Center
Thu 04:10:54 PM 31.2308 -93.1247 261° West 110 127 8,100 -63 Descending Houston Center
Thu 04:11:56 PM 31.2261 -93.1600 261° West 109 125 8,100  Level Houston Center
Thu 04:12:58 PM 31.2244 -93.2042 267° West 113 130 8,100 -48 Level Houston Center
Thu 04:14:00 PM 31.2261 -93.2394 273° West 110 127 8,000  Descending Houston Center
Thu 04:15:18 PM 31.2231 -93.2867 266° West 111 128 8,100 48 Climbing Houston Center
Thu 04:16:04 PM 31.2242 -93.3136 273° West 110 127 8,100  Level Houston Center
Thu 04:17:06 PM 31.2242 -93.3503 270° West 113 130 8,100  Level Houston Center
Thu 04:18:19 PM 31.2214 -93.3939 266° West 107 123 8,100  Level Houston Center
Thu 04:19:11 PM 31.2189 -93.4183 263° West 106 122 8,100  Level Houston Center
Thu 04:20:13 PM 31.2186 -93.4544 269° West 111 128 8,100 48 Level Houston Center
Thu 04:21:15 PM 31.2181 -93.4897 269° West 109 125 8,200 -49 Climbing Houston Center
Thu 04:22:16 PM 31.2172 -93.5356 269° West 112 129 8,000 -149 Descending Houston Center
Thu 04:23:16 PM 31.2147 -93.5672 265° West 108 124 7,900  Descending Houston Center
Thu 04:24:17 PM 31.2150 -93.6039 271° West 108 124 8,000 49 Climbing Houston Center
Thu 04:25:18 PM 31.2125 -93.6358 265° West 97 112 8,000 47 Level Houston Center
Thu 04:26:26 PM 31.2156 -93.6683 276° West 104 120 8,100 46 Climbing Houston Center
Thu 04:27:28 PM 31.2014 -93.7061 246° West 113 130 8,100  Level Houston Center
Thu 04:28:30 PM 31.1828 -93.7356 234° Southwest 114 131 8,100  Level Houston Center
Thu 04:29:32 PM 31.1661 -93.7642 236° Southwest 109 125 8,100  Level Houston Center
Thu 04:30:34 PM 31.1511 -93.7958 241° Southwest 111 128 8,100 48 Level Houston Center
Thu 04:31:36 PM 31.1344 -93.8261 237° Southwest 112 129 8,200  Climbing Houston Center
Thu 04:32:38 PM 31.1183 -93.8558 238° Southwest 110 127 8,100 -48 Descending Houston Center
Thu 04:33:40 PM 31.0994 -93.8936 240° Southwest 112 129 8,100 48 Level Houston Center
Thu 04:34:43 PM 31.0861 -93.9219 241° Southwest 110 127 8,200 48 Climbing Houston Center
Thu 04:35:45 PM 31.0719 -93.9592 246° West 106 122 8,200 -48 Level Houston Center
Thu 04:36:47 PM 31.0608 -93.9933 249° West 110 127 8,100 -48 Descending Houston Center
Thu 04:37:49 PM 31.0458 -94.0256 241° Southwest 113 130 8,100  Level Houston Center
Thu 04:38:51 PM 31.0333 -94.0575 245° Southwest 108 124 8,100 -194 Level Houston Center
Thu 04:39:53 PM 31.0186 -94.0942 245° Southwest 121 139 7,700 -435 Descending Houston Center
Thu 04:40:55 PM 31.0017 -94.1278 240° Southwest 120 138 7,200 -339 Descending Houston Center
Thu 04:41:57 PM 30.9847 -94.1689 244° Southwest 117 135 7,000 -97 Descending Houston Center
Thu 04:42:59 PM 30.9728 -94.1953 242° Southwest 110 127 7,000 97 Level Houston Center
Thu 04:44:01 PM 30.9586 -94.2256 241° Southwest 97 112 7,200 96 Climbing Houston Center
Thu 04:45:04 PM 30.9442 -94.2539 239° Southwest 99 114 7,200 -48 Level Houston Center
Thu 04:46:06 PM 30.9281 -94.2831 237° Southwest 105 121 7,100  Descending Houston Center
Thu 04:47:08 PM 30.9119 -94.3100 235° Southwest 102 117 7,200  Climbing Houston Center
Thu 04:48:10 PM 30.8928 -94.3433 236° Southwest 103 119 7,100 -97 Descending Houston Center
Thu 04:49:12 PM 30.8778 -94.3731 240° Southwest 106 122 7,000  Descending Houston Center
Thu 04:50:14 PM 30.8642 -94.4022 241° Southwest 103 119 7,100 48 Climbing Houston Center
Thu 04:51:16 PM 30.8492 -94.4289 237° Southwest 100 115 7,100 -48 Level Houston Center
Thu 04:52:18 PM 30.8347 -94.4578 240° Southwest 101 116 7,000  Descending Houston Center
Thu 04:53:20 PM 30.8178 -94.4858 235° Southwest 105 121 7,100 48 Climbing Houston Center
Thu 04:54:22 PM 30.8031 -94.5136 238° Southwest 103 119 7,100 -48 Level Houston Center
Thu 04:55:25 PM 30.7856 -94.5469 239° Southwest 101 116 7,000 -144 Descending Houston Center
Thu 04:56:27 PM 30.7714 -94.5753 240° Southwest 101 116 6,800 -245 Descending Houston Center
Thu 04:57:03 PM 30.7611 -94.5969 241° Southwest 112 129 6,600 -344 Descending Houston Center
Thu 04:58:29 PM 30.7383 -94.6436 240° Southwest 120 138 6,100 -204 Descending Houston Center
Thu 04:59:30 PM 30.7267 -94.6767 248° West 103 119 6,100 -190 Level Houston Center
Thu 05:00:35 PM 30.7142 -94.7031 241° Southwest 106 122 5,700 -639 Descending Houston Center
Thu 05:01:32 PM 30.6956 -94.7464 243° Southwest 135 155 4,800 -356 Descending Houston Center
Thu 05:02:33 PM 30.6839 -94.7794 248° West 114 131 5,000 109 Climbing Houston Center
Thu 05:03:22 PM 30.6739 -94.8050 246° West 103 119 5,000 103 Level Houston Center
Thu 05:04:29 PM 30.6600 -94.8358 242° Southwest 104 120 5,200 94 Climbing Houston Center
Thu 05:05:30 PM 30.6439 -94.8672 239° Southwest 100 115 5,200 -49 Level Houston Center
Thu 05:06:31 PM 30.6300 -94.8981 242° Southwest 110 127 5,100 -98 Descending Houston Center
Thu 05:07:32 PM 30.6167 -94.9336 246° West 119 137 5,000 -93 Descending Houston Center
Thu 05:08:40 PM 30.5967 -94.9678 236° Southwest 114 131 4,900  Descending Houston Center
Thu 05:09:35 PM 30.5828 -94.9961 240° Southwest 108 124 5,000  Climbing Houston Center
Thu 05:10:35 PM 30.5708 -95.0269 246° West 107 123 4,900 -98 Descending Houston Center
Thu 05:11:37 PM 30.5550 -95.0603 241° Southwest 111 128 4,800 -293 Descending Houston Center
Thu 05:12:38 PM 30.5392 -95.0939 241° Southwest 122 140 4,300 -541 Descending Houston Center
Thu 05:13:39 PM 30.5236 -95.1297 243° Southwest 121 139 3,700 -492 Descending Houston Center
Thu 05:14:40 PM 30.5081 -95.1656 243° Southwest 121 139 3,300 -328 Descending Houston Center
Thu 05:15:47 PM 30.4925 -95.2014 243° Southwest 116 133 3,000 -94 Descending Houston Center
Thu 05:16:48 PM 30.4764 -95.2325 239° Southwest 106 122 3,100 -103 Climbing Houston Center
Thu 05:17:44 PM 30.4597 -95.2564 231° Southwest 106 122 2,800 -359 Descending Houston Center
Thu 05:18:45 PM 30.4417 -95.2878 236° Southwest 116 133 2,400 -246 Descending Houston Center
Thu 05:19:46 PM 30.4256 -95.3189 239° Southwest 109 125 2,300 -188 Descending Houston Center
Thu 05:20:53 PM 30.4144 -95.3589 252° West 112 129 2,000 -443 Descending Houston Center
Thu 05:21:48 PM 30.4047 -95.3892 250° West 112 129 1,400 -488 Descending Houston Center
Thu 05:22:19 PM 30.4003 -95.4006 246° West 109 125 1,300 -269 Descending Houston Center
Thu 05:22:55 PM 30.3906 -95.4175 236° Southwest 93 107 1,100 -433 Descending Houston Center
Thu 05:23:56 PM 30.3728 -95.4294 210° Southwest 64 74 600 -293 Descending Houston Center
Thu 05:24:58 PM 30.3614 -95.4211 148° Southeast 64 74 500 -97 Descending Houston Center

Login

Don't have an account? Register now (free) for customized features, flight alerts, and more!